CheckWX is a tool to help pilots better visualize weather data.  It is not intended as a substitute for an official pre-flight weather briefing.

02:51:25 UTC

KFSO METAR
Franklin County State Airport
Highgate, Vermont, USA
Current

15 mins ago

KFSO 240236Z AUTO 17003KT 10SM CLR M08/M11 A2999 RMK AO2 T10821106
Observed
Mar-24 @ 02:36 UTC
Wind
  • 170° at 3 KTS
Visibility
10 SM
Flight Rules
VFR
Cloud Levels
  • Clear skies
Temperature
-8°C / 18°F
Dewpoint
-11°C / 12°F
Humidity
79%
Altimeter
29.99" Hg
Pressure
1015.62 hPa
Previous

35 mins ago

KFSO 240216Z AUTO 00000KT 10SM CLR M08/M09 A2999 RMK AO2 T10771095
Observed
Mar-24 @ 02:16 UTC
Visibility
10 SM
Flight Rules
VFR
Cloud Levels
  • Clear skies
Temperature
-8°C / 18°F
Dewpoint
-10°C / 14°F
Humidity
86%
Altimeter
29.99" Hg
Pressure
1015.62 hPa
Previous

56 mins ago

KFSO 240155Z AUTO 00000KT 10SM CLR M08/M11 A2999 RMK AO2 T10781106
Observed
Mar-24 @ 01:55 UTC
Visibility
10 SM
Flight Rules
VFR
Cloud Levels
  • Clear skies
Temperature
-8°C / 18°F
Dewpoint
-11°C / 12°F
Humidity
79%
Altimeter
29.99" Hg
Pressure
1015.62 hPa